Maersk Windhoek — 3FWJ3 — position and weather

sailwx.info

Track history (hours):
 
Tides and Currents Weather Stations Pressure Air Temp Water Temp Dewpoint Dewpoint Depression Visibility Wind Speed Wind Dir Waves Ship Positions

Maersk Windhoek

Last reported at 2016-Feb-12 04:33 UTC. Time now 2016-Feb-14 12:45 UTC.
Position N 14°25' W 018°00'.

Length 172 m; draft 6.9 m.

Type: Ship (hazmat cat A). MMSI: 370431000.

Date/timePositionNaut miles runAvg speedWind from/ knotsBaromVisibWave heightAir tempDewpointWater temp
2016-Feb-12 04:33N 14°25' W 018°00'1817.6
2016-Feb-12 03:32N 14°42' W 017°60'1717.6
2016-Feb-12 02:33N 14°60' W 018°00'1917.9
2016-Feb-12 01:29N 15°19' W 018°01'1617.5
2016-Feb-12 00:33N 15°35' W 018°00'1817.8
2016-Feb-11 23:33N 15°53' W 018°00'1817.8
2016-Feb-11 22:33N 16°11' W 018°00'1817.6
2016-Feb-11 21:34N 16°28' W 018°01'1817.5
2016-Feb-11 20:33N 16°46' W 017°60'2217.8
2016-Feb-11 19:21N 17°07' W 017°60'  
Track history (hours):
 
Tides and Currents Weather Stations Pressure Air Temp Water Temp Dewpoint Dewpoint Depression Visibility Wind Speed Wind Dir Waves Ship Positions

Maersk Windhoek

Last reported at 2016-Feb-12 04:33 UTC. Time now 2016-Feb-14 12:45 UTC.
Position N 14°25' W 018°00'.

Length 172 m; draft 6.9 m.

Type: Ship (hazmat cat A). MMSI: 370431000.

Date/timePositionNaut miles runAvg speedWind from/ knotsBaromVisibWave heightAir tempDewpointWater temp
2016-Feb-12 04:33N 14°25' W 018°00'1817.6
2016-Feb-12 03:32N 14°42' W 017°60'1717.6
2016-Feb-12 02:33N 14°60' W 018°00'1917.9
2016-Feb-12 01:29N 15°19' W 018°01'1617.5
2016-Feb-12 00:33N 15°35' W 018°00'1817.8
2016-Feb-11 23:33N 15°53' W 018°00'1817.8
2016-Feb-11 22:33N 16°11' W 018°00'1817.6
2016-Feb-11 21:34N 16°28' W 018°01'1817.5
2016-Feb-11 20:33N 16°46' W 017°60'2217.8
2016-Feb-11 19:21N 17°07' W 017°60'  

Dump ship's entire track history